Time;durP1;ratioP1;P1;durP2;ratioP2;P2;SDS_P1;SDS_P2;PMS_P1;PMS_P2;Temp;Humidity;BMP_temperature;BMP_pressure;BME280_temperature;BME280_humidity;BME280_pressure;Samples;Min_cycle;Max_cycle;Signal;HPM_P1;HPM_P2
2022/01/16 00:04:31;;;;;;;14.45;8.95;;;;;;;;;;5092232;28;20079;-66
2022/01/16 00:07:01;;;;;;;13.88;8.68;;;;;;;;;;5091890;27;20100;-67
2022/01/16 00:09:28;;;;;;;12.63;8.57;;;;;;;;;;5092279;28;20049;-67
2022/01/16 00:11:58;;;;;;;15.70;10.00;;;;;;;;;;5091427;27;20043;-67
2022/01/16 00:14:25;;;;;;;13.52;8.82;;;;;;;;;;5126206;27;20204;-67
2022/01/16 00:16:51;;;;;;;14.65;9.07;;;;;;;;;;5075939;27;20074;-67
2022/01/16 00:19:17;;;;;;;15.75;8.70;;;;;;;;;;5092156;28;20060;-67
2022/01/16 00:21:44;;;;;;;15.93;9.38;;;;;;;;;;5089849;27;20075;-67
2022/01/16 00:24:11;;;;;;;15.60;8.98;;;;;;;;;;5096524;27;20047;-67
2022/01/16 00:26:37;;;;;;;15.43;9.55;;;;;;;;;;5112553;27;20039;-67
2022/01/16 00:29:04;;;;;;;16.58;10.30;;;;;;;;;;5093127;27;20042;-67
2022/01/16 00:31:30;;;;;;;15.60;9.50;;;;;;;;;;5091047;27;20039;-67
2022/01/16 00:33:56;;;;;;;14.57;9.30;;;;;;;;;;5076115;28;20092;-65
2022/01/16 00:36:22;;;;;;;15.90;9.45;;;;;;;;;;5108320;28;20097;-65
2022/01/16 00:38:49;;;;;;;15.38;10.50;;;;;;;;;;5122955;27;20031;-65
2022/01/16 00:41:17;;;;;;;18.30;11.57;;;;;;;;;;5108730;27;20104;-65
2022/01/16 00:43:44;;;;;;;15.43;10.32;;;;;;;;;;5108946;27;20408;-65
2022/01/16 00:46:10;;;;;;;16.45;9.88;;;;;;;;;;5091991;27;20035;-65
2022/01/16 00:48:36;;;;;;;16.98;10.48;;;;;;;;;;5091630;27;20041;-65
2022/01/16 00:51:02;;;;;;;17.75;10.27;;;;;;;;;;5108903;27;20050;-65
2022/01/16 00:53:28;;;;;;;16.50;10.23;;;;;;;;;;5107922;27;20046;-65
2022/01/16 00:55:54;;;;;;;16.38;10.27;;;;;;;;;;5109634;27;20031;-65
2022/01/16 00:58:20;;;;;;;17.23;10.77;;;;;;;;;;5108280;27;20042;-65
2022/01/16 01:00:47;;;;;;;15.98;10.40;;;;;;;;;;5092073;27;20039;-65
2022/01/16 01:03:13;;;;;;;15.85;10.70;;;;;;;;;;5107901;27;20039;-65
2022/01/16 01:05:40;;;;;;;18.17;10.75;;;;;;;;;;5109052;27;20043;-65
2022/01/16 01:08:07;;;;;;;18.10;11.52;;;;;;;;;;5107661;27;20701;-65
2022/01/16 01:10:36;;;;;;;16.75;10.55;;;;;;;;;;5127505;27;20498;-65
2022/01/16 01:13:09;;;;;;;16.63;10.90;;;;;;;;;;5107561;27;20051;-65
2022/01/16 01:15:42;;;;;;;16.83;10.73;;;;;;;;;;5127149;27;20566;-65
2022/01/16 01:18:09;;;;;;;17.17;11.50;;;;;;;;;;5107860;27;20039;-65
2022/01/16 01:20:35;;;;;;;16.95;10.95;;;;;;;;;;5107271;27;20054;-65
2022/01/16 01:23:01;;;;;;;15.60;9.93;;;;;;;;;;5107601;27;20051;-65
2022/01/16 01:25:27;;;;;;;17.30;11.40;;;;;;;;;;5108611;27;20035;-65
2022/01/16 01:27:53;;;;;;;18.48;10.50;;;;;;;;;;5107479;27;20041;-65
2022/01/16 01:30:23;;;;;;;16.92;11.00;;;;;;;;;;5108872;27;20042;-65
2022/01/16 01:32:49;;;;;;;16.83;10.80;;;;;;;;;;5090939;27;20039;-65
2022/01/16 01:35:18;;;;;;;16.90;11.00;;;;;;;;;;5108732;27;20053;-65
2022/01/16 01:37:44;;;;;;;16.10;11.20;;;;;;;;;;5107209;27;20104;-65
2022/01/16 01:40:12;;;;;;;15.85;10.52;;;;;;;;;;5108786;27;20039;-65
2022/01/16 01:42:50;;;;;;;19.02;11.85;;;;;;;;;;5107312;27;20039;-65
2022/01/16 01:51:07;;;;;;;17.17;11.35;;;;;;;;;;5107866;27;20615;-65
2022/01/16 01:53:33;;;;;;;17.35;11.10;;;;;;;;;;5107016;27;20047;-65
2022/01/16 01:55:59;;;;;;;16.52;10.60;;;;;;;;;;5091108;27;20130;-65
2022/01/16 01:58:25;;;;;;;18.13;10.95;;;;;;;;;;5106450;27;20035;-65
2022/01/16 02:00:52;;;;;;;17.15;11.18;;;;;;;;;;5107205;27;20035;-65
2022/01/16 02:03:29;;;;;;;16.05;10.93;;;;;;;;;;5107140;27;20039;-65
2022/01/16 02:05:55;;;;;;;17.30;11.20;;;;;;;;;;5125737;27;20513;-65
2022/01/16 02:08:21;;;;;;;17.40;11.57;;;;;;;;;;5106757;27;20050;-65
2022/01/16 02:10:47;;;;;;;18.08;11.65;;;;;;;;;;5107932;27;20047;-65
2022/01/16 02:13:24;;;;;;;17.52;11.80;;;;;;;;;;5124446;27;20058;-65
2022/01/16 02:30:14;;;;;;;18.60;12.32;;;;;;;;;;5087245;28;20066;-65
2022/01/16 02:32:48;;;;;;;19.08;12.30;;;;;;;;;;5091945;27;20537;-65
2022/01/16 02:35:14;;;;;;;17.77;11.60;;;;;;;;;;5106789;27;20565;-65
2022/01/16 02:37:41;;;;;;;20.42;12.88;;;;;;;;;;5105366;27;20053;-65
2022/01/16 02:40:14;;;;;;;19.60;12.68;;;;;;;;;;5107663;27;20539;-65
2022/01/16 02:42:46;;;;;;;20.13;13.27;;;;;;;;;;5106110;27;20050;-65
2022/01/16 02:45:26;;;;;;;20.40;13.20;;;;;;;;;;5107568;27;20043;-65
2022/01/16 02:47:52;;;;;;;18.98;11.75;;;;;;;;;;5105748;27;20047;-65
2022/01/16 02:50:18;;;;;;;20.33;13.20;;;;;;;;;;5106837;27;20042;-65
2022/01/16 02:52:44;;;;;;;21.38;13.60;;;;;;;;;;5105616;27;20035;-65
2022/01/16 02:55:13;;;;;;;21.60;14.30;;;;;;;;;;5125213;27;20054;-65
2022/01/16 02:57:39;;;;;;;21.65;14.90;;;;;;;;;;5105767;27;20084;-65
2022/01/16 03:00:05;;;;;;;21.52;13.75;;;;;;;;;;5089193;27;20553;-65
2022/01/16 03:02:32;;;;;;;22.20;14.55;;;;;;;;;;5105457;27;20461;-65
2022/01/16 03:04:58;;;;;;;19.88;13.10;;;;;;;;;;5106398;27;20045;-65
2022/01/16 03:07:24;;;;;;;19.98;13.85;;;;;;;;;;5104940;27;20144;-65
2022/01/16 03:10:28;;;;;;;22.23;14.20;;;;;;;;;;5089981;27;20572;-65
2022/01/16 03:12:54;;;;;;;23.02;15.13;;;;;;;;;;5106380;27;20073;-65
2022/01/16 03:15:21;;;;;;;25.40;15.43;;;;;;;;;;5107088;27;20049;-65
2022/01/16 03:23:18;;;;;;;24.30;14.85;;;;;;;;;;5105620;28;20039;-65
2022/01/16 03:25:48;;;;;;;21.45;14.40;;;;;;;;;;5106733;28;20039;-65
2022/01/16 03:28:14;;;;;;;23.35;14.93;;;;;;;;;;5089350;28;20080;-65
2022/01/16 03:30:40;;;;;;;25.50;16.25;;;;;;;;;;5106709;28;20050;-65
2022/01/16 03:33:06;;;;;;;25.27;16.42;;;;;;;;;;5105125;28;20068;-65
2022/01/16 03:35:33;;;;;;;22.50;15.73;;;;;;;;;;5106197;28;20130;-65
2022/01/16 03:37:59;;;;;;;23.85;15.43;;;;;;;;;;5105314;28;20181;-65
2022/01/16 03:40:25;;;;;;;24.52;16.02;;;;;;;;;;5106670;28;20130;-65
2022/01/16 03:42:51;;;;;;;24.02;15.90;;;;;;;;;;5105168;28;20047;-65
2022/01/16 03:45:17;;;;;;;23.50;15.48;;;;;;;;;;5101906;28;20092;-65
2022/01/16 03:47:43;;;;;;;22.65;13.93;;;;;;;;;;5069887;28;20072;-65
2022/01/16 03:50:10;;;;;;;26.25;16.73;;;;;;;;;;5105935;28;20056;-64
2022/01/16 03:52:37;;;;;;;26.00;16.65;;;;;;;;;;5105539;28;20039;-65
2022/01/16 03:55:03;;;;;;;23.73;15.98;;;;;;;;;;5106645;28;20119;-65
2022/01/16 03:57:30;;;;;;;26.15;17.25;;;;;;;;;;5105522;28;20046;-65
2022/01/16 03:59:56;;;;;;;25.90;16.77;;;;;;;;;;5106768;28;20099;-65
2022/01/16 04:02:22;;;;;;;22.98;15.88;;;;;;;;;;5105337;28;20690;-65
2022/01/16 04:04:49;;;;;;;25.63;17.20;;;;;;;;;;5088589;28;20736;-65
2022/01/16 04:07:22;;;;;;;25.60;16.08;;;;;;;;;;5105118;28;20039;-65
2022/01/16 04:09:48;;;;;;;25.33;16.25;;;;;;;;;;5083140;28;20047;-65
2022/01/16 04:12:20;;;;;;;26.95;16.27;;;;;;;;;;5106094;27;20047;-65
2022/01/16 04:17:13;;;;;;;23.83;15.43;;;;;;;;;;5125948;27;20031;-65
2022/01/16 04:19:39;;;;;;;24.85;16.02;;;;;;;;;;5092387;27;20047;-65
2022/01/16 04:22:05;;;;;;;24.92;15.32;;;;;;;;;;5097250;27;20128;-65
2022/01/16 04:24:31;;;;;;;22.75;15.02;;;;;;;;;;5110065;27;20039;-65
2022/01/16 04:26:57;;;;;;;25.30;16.85;;;;;;;;;;5108534;27;20407;-65
2022/01/16 04:29:23;;;;;;;25.60;16.23;;;;;;;;;;5108975;27;20039;-65
2022/01/16 04:31:49;;;;;;;24.10;15.23;;;;;;;;;;5107700;27;20043;-65
2022/01/16 04:34:15;;;;;;;25.67;16.08;;;;;;;;;;5109484;27;20122;-64
2022/01/16 04:36:41;;;;;;;24.35;15.98;;;;;;;;;;5127354;27;20476;-65
2022/01/16 04:39:12;;;;;;;22.88;15.35;;;;;;;;;;5109801;27;20166;-65
2022/01/16 04:44:23;;;;;;;24.25;15.75;;;;;;;;;;5132837;27;20082;-65
2022/01/16 04:46:50;;;;;;;24.75;15.60;;;;;;;;;;5108834;27;20442;-65
2022/01/16 04:49:16;;;;;;;26.65;16.63;;;;;;;;;;5109118;27;20487;-65
2022/01/16 04:51:42;;;;;;;21.45;15.32;;;;;;;;;;5076478;27;20047;-65
2022/01/16 04:54:08;;;;;;;26.65;15.63;;;;;;;;;;5109763;27;20392;-65
2022/01/16 04:56:34;;;;;;;27.23;17.10;;;;;;;;;;5109102;27;20084;-65
2022/01/16 04:59:00;;;;;;;24.90;15.88;;;;;;;;;;5108474;27;20043;-66
2022/01/16 05:01:26;;;;;;;26.15;16.42;;;;;;;;;;5109122;27;20775;-65
2022/01/16 05:03:52;;;;;;;25.17;15.85;;;;;;;;;;5108695;27;20046;-65
2022/01/16 05:06:19;;;;;;;23.13;15.23;;;;;;;;;;5108843;27;20042;-65
2022/01/16 05:08:45;;;;;;;27.23;16.98;;;;;;;;;;5108070;27;20046;-65
2022/01/16 05:11:12;;;;;;;26.90;15.95;;;;;;;;;;5108869;27;20074;-65
2022/01/16 05:18:50;;;;;;;25.75;15.98;;;;;;;;;;5107557;27;20627;-65
2022/01/16 05:21:17;;;;;;;25.27;15.63;;;;;;;;;;5090765;27;20039;-65
2022/01/16 05:23:43;;;;;;;26.08;15.95;;;;;;;;;;5108076;27;20461;-65
2022/01/16 05:26:09;;;;;;;25.20;15.35;;;;;;;;;;5127234;27;20122;-65
2022/01/16 05:28:36;;;;;;;25.52;15.68;;;;;;;;;;5107612;27;20307;-65
2022/01/16 05:31:02;;;;;;;24.95;15.57;;;;;;;;;;5091648;27;20071;-65
2022/01/16 05:33:28;;;;;;;24.85;15.60;;;;;;;;;;5107678;27;20668;-65
2022/01/16 05:35:54;;;;;;;26.52;16.30;;;;;;;;;;5108036;27;20669;-65
2022/01/16 05:38:20;;;;;;;26.85;16.30;;;;;;;;;;5126572;27;20042;-65
2022/01/16 05:40:47;;;;;;;27.55;16.67;;;;;;;;;;5109168;27;20099;-65
2022/01/16 05:43:13;;;;;;;25.17;16.33;;;;;;;;;;5107598;27;20057;-65
2022/01/16 05:45:39;;;;;;;25.48;15.10;;;;;;;;;;5126536;27;20500;-65
2022/01/16 05:48:05;;;;;;;27.10;15.93;;;;;;;;;;5125365;27;20672;-65
2022/01/16 05:50:31;;;;;;;27.00;15.98;;;;;;;;;;5107488;27;20046;-65
2022/01/16 05:52:58;;;;;;;27.23;16.30;;;;;;;;;;5107140;27;20077;-66
2022/01/16 05:55:29;;;;;;;27.50;15.95;;;;;;;;;;5091037;27;20183;-65
2022/01/16 05:57:55;;;;;;;26.90;15.77;;;;;;;;;;5107026;27;20043;-65
2022/01/16 06:00:21;;;;;;;29.40;16.92;;;;;;;;;;5107984;27;20610;-65
2022/01/16 06:02:47;;;;;;;25.75;16.45;;;;;;;;;;5089344;27;20687;-65
2022/01/16 06:05:13;;;;;;;25.50;15.48;;;;;;;;;;5091134;27;20044;-65
2022/01/16 06:07:44;;;;;;;26.80;16.40;;;;;;;;;;5106211;27;20138;-65
2022/01/16 06:10:10;;;;;;;27.30;16.27;;;;;;;;;;5107950;27;20100;-65
2022/01/16 06:12:36;;;;;;;28.17;16.08;;;;;;;;;;5107582;27;20090;-65
2022/01/16 06:15:05;;;;;;;27.17;16.10;;;;;;;;;;5107692;27;20046;-65
2022/01/16 06:17:31;;;;;;;27.00;16.38;;;;;;;;;;5089927;27;20625;-65
2022/01/16 06:19:57;;;;;;;25.20;14.88;;;;;;;;;;5107606;27;20078;-65
2022/01/16 06:22:23;;;;;;;28.00;15.82;;;;;;;;;;5106529;27;20035;-65
2022/01/16 06:24:49;;;;;;;27.25;16.00;;;;;;;;;;5091357;27;20496;-65
2022/01/16 06:27:15;;;;;;;26.67;15.35;;;;;;;;;;5124946;27;20030;-65
2022/01/16 06:29:41;;;;;;;27.08;16.02;;;;;;;;;;5107221;27;20043;-65
2022/01/16 06:32:07;;;;;;;27.88;15.73;;;;;;;;;;5124441;27;20509;-65
2022/01/16 06:34:33;;;;;;;26.80;16.42;;;;;;;;;;5106705;27;20049;-65
2022/01/16 06:36:59;;;;;;;26.67;15.68;;;;;;;;;;5088174;27;20043;-65
2022/01/16 06:39:25;;;;;;;25.38;16.08;;;;;;;;;;5106697;27;20631;-65
2022/01/16 06:41:51;;;;;;;27.65;16.25;;;;;;;;;;5124205;27;20051;-66
2022/01/16 06:44:17;;;;;;;27.02;15.38;;;;;;;;;;5090867;27;20042;-66
2022/01/16 06:46:43;;;;;;;26.60;16.35;;;;;;;;;;5107140;27;20031;-65
2022/01/16 06:49:10;;;;;;;25.35;15.30;;;;;;;;;;5107018;27;20034;-65
2022/01/16 06:51:36;;;;;;;27.13;15.88;;;;;;;;;;5106915;27;20582;-66
2022/01/16 06:54:03;;;;;;;24.77;15.20;;;;;;;;;;5105843;27;20096;-65
2022/01/16 06:56:30;;;;;;;28.65;16.63;;;;;;;;;;5107176;27;20053;-66
2022/01/16 06:58:56;;;;;;;27.48;15.27;;;;;;;;;;5106053;27;20051;-66
2022/01/16 07:01:22;;;;;;;27.83;15.75;;;;;;;;;;5107010;27;20688;-65
2022/01/16 07:03:49;;;;;;;24.67;15.50;;;;;;;;;;5106001;27;20363;-66
2022/01/16 07:06:15;;;;;;;25.67;15.85;;;;;;;;;;5105916;27;20035;-66
2022/01/16 07:08:41;;;;;;;26.60;15.73;;;;;;;;;;5105807;27;20518;-65
2022/01/16 07:11:07;;;;;;;27.90;15.38;;;;;;;;;;5106733;27;20091;-66
2022/01/16 07:13:33;;;;;;;26.80;15.95;;;;;;;;;;5105564;27;20039;-65
2022/01/16 07:15:59;;;;;;;29.85;15.80;;;;;;;;;;5106146;27;20110;-65
2022/01/16 07:18:25;;;;;;;26.52;15.63;;;;;;;;;;5105621;28;20043;-66
2022/01/16 07:20:51;;;;;;;24.17;14.48;;;;;;;;;;5105752;27;20055;-65
2022/01/16 07:23:17;;;;;;;24.85;15.05;;;;;;;;;;5089152;28;20047;-67
2022/01/16 07:25:44;;;;;;;24.52;14.80;;;;;;;;;;5106604;28;20074;-67
2022/01/16 07:28:10;;;;;;;26.83;15.25;;;;;;;;;;5124062;28;20161;-67
2022/01/16 07:30:36;;;;;;;29.30;15.38;;;;;;;;;;5124558;28;20039;-67
2022/01/16 07:33:03;;;;;;;26.38;15.50;;;;;;;;;;5105233;28;20054;-67
2022/01/16 07:35:30;;;;;;;24.70;14.82;;;;;;;;;;5089406;28;20050;-67
2022/01/16 07:37:56;;;;;;;25.35;15.02;;;;;;;;;;5089096;28;20511;-67
2022/01/16 07:40:22;;;;;;;25.13;15.88;;;;;;;;;;5106889;28;20731;-67
2022/01/16 07:42:48;;;;;;;22.63;14.55;;;;;;;;;;5123621;28;20035;-67
2022/01/16 07:45:14;;;;;;;25.05;14.77;;;;;;;;;;5106335;28;20093;-67
2022/01/16 07:47:40;;;;;;;24.98;15.40;;;;;;;;;;5109233;27;20068;-67
2022/01/16 07:50:07;;;;;;;28.50;16.45;;;;;;;;;;5110653;27;20043;-66
2022/01/16 07:52:34;;;;;;;25.40;15.10;;;;;;;;;;5092948;27;20035;-67
2022/01/16 07:55:00;;;;;;;24.50;14.80;;;;;;;;;;5127056;27;20495;-67
2022/01/16 07:57:26;;;;;;;24.25;14.93;;;;;;;;;;5101419;27;20039;-66
2022/01/16 07:59:52;;;;;;;26.98;15.13;;;;;;;;;;5093313;27;20035;-67
2022/01/16 08:02:18;;;;;;;24.15;15.32;;;;;;;;;;5086006;27;20548;-66
2022/01/16 08:04:44;;;;;;;25.20;15.75;;;;;;;;;;5110130;27;20038;-66
2022/01/16 08:07:10;;;;;;;26.70;16.52;;;;;;;;;;5078707;27;20042;-67
2022/01/16 08:09:40;;;;;;;26.33;16.13;;;;;;;;;;5110103;27;20078;-67
2022/01/16 08:12:06;;;;;;;25.73;14.95;;;;;;;;;;5108718;27;20480;-67
2022/01/16 08:14:33;;;;;;;24.63;14.45;;;;;;;;;;5092969;27;20070;-67
2022/01/16 08:17:00;;;;;;;24.77;14.70;;;;;;;;;;5108247;27;20043;-67
2022/01/16 08:19:26;;;;;;;24.92;14.93;;;;;;;;;;5097381;27;20690;-67
2022/01/16 08:21:52;;;;;;;25.75;14.65;;;;;;;;;;5085638;27;20088;-67
2022/01/16 08:24:18;;;;;;;26.35;15.00;;;;;;;;;;5109787;27;20126;-67
2022/01/16 08:26:45;;;;;;;24.23;15.18;;;;;;;;;;5091659;27;20129;-67
2022/01/16 08:29:11;;;;;;;25.90;15.52;;;;;;;;;;5108576;27;20427;-66
2022/01/16 08:31:37;;;;;;;23.58;14.50;;;;;;;;;;5091178;27;20043;-67
2022/01/16 08:34:03;;;;;;;23.90;14.40;;;;;;;;;;5108304;27;20042;-67
2022/01/16 08:36:29;;;;;;;27.92;15.90;;;;;;;;;;5108141;27;20118;-67
2022/01/16 08:38:55;;;;;;;25.13;15.15;;;;;;;;;;5107647;27;20666;-67
2022/01/16 08:41:21;;;;;;;25.10;14.77;;;;;;;;;;5109361;27;20054;-67
2022/01/16 08:43:48;;;;;;;24.63;14.68;;;;;;;;;;5090919;27;20045;-67
2022/01/16 08:46:14;;;;;;;24.77;15.00;;;;;;;;;;5108060;27;20593;-67
2022/01/16 08:48:40;;;;;;;23.00;14.23;;;;;;;;;;5107754;27;20062;-67
2022/01/16 08:51:06;;;;;;;23.85;13.65;;;;;;;;;;5108279;27;20081;-67
2022/01/16 08:53:33;;;;;;;24.55;14.82;;;;;;;;;;5107572;27;20107;-67
2022/01/16 08:56:00;;;;;;;25.58;14.45;;;;;;;;;;5108157;27;20508;-66
2022/01/16 08:58:26;;;;;;;23.73;13.88;;;;;;;;;;5105669;27;20078;-67
2022/01/16 09:00:52;;;;;;;22.70;14.10;;;;;;;;;;5107685;27;20043;-67
2022/01/16 09:03:22;;;;;;;20.48;12.90;;;;;;;;;;5108452;27;20039;-67
2022/01/16 09:05:49;;;;;;;22.33;13.35;;;;;;;;;;5108054;27;20071;-67
2022/01/16 09:08:15;;;;;;;22.52;13.95;;;;;;;;;;5091129;27;20082;-67
2022/01/16 09:10:41;;;;;;;21.33;13.70;;;;;;;;;;5108873;27;20567;-67
2022/01/16 09:13:11;;;;;;;22.70;12.98;;;;;;;;;;5090655;27;20048;-67
2022/01/16 09:15:38;;;;;;;22.80;13.35;;;;;;;;;;5108373;27;20050;-67
2022/01/16 09:18:04;;;;;;;21.73;13.38;;;;;;;;;;5106975;27;20047;-67
2022/01/16 09:20:30;;;;;;;19.98;12.77;;;;;;;;;;5107891;27;20123;-67
2022/01/16 09:22:56;;;;;;;21.33;13.20;;;;;;;;;;5108048;27;20039;-66
2022/01/16 09:25:22;;;;;;;21.50;12.35;;;;;;;;;;5108960;27;20414;-65
2022/01/16 09:27:48;;;;;;;20.02;11.88;;;;;;;;;;5107003;27;20404;-65
2022/01/16 09:30:15;;;;;;;21.35;11.70;;;;;;;;;;5108649;27;20050;-65
2022/01/16 09:32:41;;;;;;;20.92;12.20;;;;;;;;;;5107687;27;20046;-66
2022/01/16 09:35:08;;;;;;;17.83;11.23;;;;;;;;;;5091620;27;20092;-65
2022/01/16 09:37:34;;;;;;;19.52;11.85;;;;;;;;;;5090533;27;20118;-66
2022/01/16 09:40:00;;;;;;;19.05;11.70;;;;;;;;;;5111558;27;20069;-65
2022/01/16 09:42:27;;;;;;;19.58;12.05;;;;;;;;;;5093398;27;20047;-65
2022/01/16 09:44:53;;;;;;;18.67;11.57;;;;;;;;;;5108703;28;20067;-65
2022/01/16 09:47:19;;;;;;;21.13;11.65;;;;;;;;;;5108559;27;20032;-65
2022/01/16 09:49:46;;;;;;;18.60;11.30;;;;;;;;;;5091330;28;20036;-65
2022/01/16 09:52:13;;;;;;;18.77;11.27;;;;;;;;;;5093371;27;20077;-65
2022/01/16 09:54:39;;;;;;;18.58;11.02;;;;;;;;;;5107988;27;20072;-66
2022/01/16 09:57:06;;;;;;;19.70;12.32;;;;;;;;;;5089254;27;20043;-64
2022/01/16 09:59:32;;;;;;;19.02;10.88;;;;;;;;;;5126186;27;20041;-65
2022/01/16 10:01:58;;;;;;;17.13;10.43;;;;;;;;;;5106690;27;20035;-66
2022/01/16 10:04:38;;;;;;;15.90;10.30;;;;;;;;;;5091012;27;20122;-65
2022/01/16 10:07:09;;;;;;;16.30;10.02;;;;;;;;;;5106877;27;20042;-65
2022/01/16 10:09:35;;;;;;;17.92;10.27;;;;;;;;;;5090811;27;20523;-65
2022/01/16 10:12:02;;;;;;;16.55;9.98;;;;;;;;;;5088982;27;20446;-64
2022/01/16 10:14:37;;;;;;;17.15;9.90;;;;;;;;;;5107867;27;20035;-65
2022/01/16 10:17:13;;;;;;;17.77;10.98;;;;;;;;;;5122857;27;20051;-65
2022/01/16 10:19:39;;;;;;;17.00;10.60;;;;;;;;;;5075029;27;20055;-65
2022/01/16 10:22:07;;;;;;;17.67;10.05;;;;;;;;;;5078928;27;20107;-65
2022/01/16 10:24:34;;;;;;;18.75;10.32;;;;;;;;;;5128858;27;20039;-65
2022/01/16 10:27:10;;;;;;;16.30;9.85;;;;;;;;;;5071390;27;22364;-65
2022/01/16 10:29:44;;;;;;;16.00;9.38;;;;;;;;;;5086524;28;20028;-65
2022/01/16 10:32:14;;;;;;;17.48;9.90;;;;;;;;;;5089208;27;20376;-64
2022/01/16 10:34:41;;;;;;;15.43;9.35;;;;;;;;;;5090340;27;20049;-65
2022/01/16 10:37:19;;;;;;;15.63;9.43;;;;;;;;;;5105494;27;20059;-65
2022/01/16 10:39:57;;;;;;;16.95;9.57;;;;;;;;;;5095520;27;20071;-65
2022/01/16 10:42:23;;;;;;;14.45;8.80;;;;;;;;;;5075819;27;21794;-65
2022/01/16 10:45:04;;;;;;;14.77;8.52;;;;;;;;;;5077498;28;20036;-65
2022/01/16 10:47:33;;;;;;;15.85;8.90;;;;;;;;;;5124416;27;20043;-65
2022/01/16 10:50:00;;;;;;;15.80;8.50;;;;;;;;;;5107190;27;20035;-65
2022/01/16 10:52:26;;;;;;;14.57;8.55;;;;;;;;;;5105383;27;20050;-65
2022/01/16 10:54:52;;;;;;;16.40;9.00;;;;;;;;;;5106751;27;20122;-64
2022/01/16 10:57:23;;;;;;;15.77;9.27;;;;;;;;;;5089370;27;20122;-65
2022/01/16 10:59:49;;;;;;;15.48;8.93;;;;;;;;;;5106977;27;20108;-65
2022/01/16 11:02:15;;;;;;;13.38;8.38;;;;;;;;;;5088823;27;20783;-64
2022/01/16 11:04:41;;;;;;;16.30;8.50;;;;;;;;;;5107620;27;20149;-65
2022/01/16 11:07:07;;;;;;;15.02;8.15;;;;;;;;;;5104676;27;20083;-65
2022/01/16 11:09:34;;;;;;;14.07;7.68;;;;;;;;;;5107174;27;20071;-65
2022/01/16 11:12:00;;;;;;;14.60;8.35;;;;;;;;;;5105583;27;20055;-65
2022/01/16 11:14:27;;;;;;;14.52;7.72;;;;;;;;;;5107200;27;20047;-65
2022/01/16 11:16:55;;;;;;;14.70;7.97;;;;;;;;;;5104943;28;20047;-65
2022/01/16 11:19:23;;;;;;;12.73;7.28;;;;;;;;;;5083006;28;20060;-65
2022/01/16 11:21:53;;;;;;;14.00;7.57;;;;;;;;;;5068569;28;20044;-65
2022/01/16 11:24:33;;;;;;;14.65;7.15;;;;;;;;;;5107041;28;20039;-65
2022/01/16 11:26:59;;;;;;;14.95;7.82;;;;;;;;;;5105021;28;20054;-65
2022/01/16 11:29:26;;;;;;;15.18;7.50;;;;;;;;;;5105951;28;20484;-67
2022/01/16 11:31:53;;;;;;;14.13;7.07;;;;;;;;;;5103431;28;20053;-66
2022/01/16 11:34:19;;;;;;;12.07;6.75;;;;;;;;;;5063912;28;20048;-66
2022/01/16 11:36:45;;;;;;;13.20;7.45;;;;;;;;;;5079669;28;20054;-66
2022/01/16 11:39:12;;;;;;;12.05;6.85;;;;;;;;;;5070384;28;20054;-66
2022/01/16 11:41:50;;;;;;;12.35;6.63;;;;;;;;;;5080768;28;20404;-66
2022/01/16 11:44:23;;;;;;;12.63;7.00;;;;;;;;;;5086664;27;20107;-67
2022/01/16 11:46:50;;;;;;;14.02;6.68;;;;;;;;;;5071197;28;20400;-66
2022/01/16 11:49:19;;;;;;;13.48;7.10;;;;;;;;;;5077198;28;20054;-64
2022/01/16 11:51:51;;;;;;;12.75;6.43;;;;;;;;;;5118670;27;20054;-65
2022/01/16 11:54:23;;;;;;;12.80;6.18;;;;;;;;;;5113630;27;20058;-67
2022/01/16 11:56:53;;;;;;;12.23;6.15;;;;;;;;;;5074707;28;20051;-67
2022/01/16 11:59:37;;;;;;;13.60;6.38;;;;;;;;;;5071631;28;20076;-67
2022/01/16 12:02:09;;;;;;;12.52;6.15;;;;;;;;;;5068249;28;20112;-66
2022/01/16 12:04:38;;;;;;;11.15;5.80;;;;;;;;;;5064798;28;20048;-67
2022/01/16 12:07:13;;;;;;;11.93;5.85;;;;;;;;;;5092235;28;20123;-67
2022/01/16 12:09:47;;;;;;;11.95;5.80;;;;;;;;;;5101777;28;20043;-68
2022/01/16 12:12:13;;;;;;;12.52;6.35;;;;;;;;;;5098876;28;20069;-67
2022/01/16 12:15:00;;;;;;;11.43;5.55;;;;;;;;;;5099351;28;20109;-66
2022/01/16 12:17:26;;;;;;;15.10;5.80;;;;;;;;;;5098797;28;20713;-67
2022/01/16 12:19:53;;;;;;;11.75;5.13;;;;;;;;;;5089500;28;20123;-67
2022/01/16 12:22:42;;;;;;;13.07;5.70;;;;;;;;;;5094951;28;20038;-67
2022/01/16 12:25:15;;;;;;;10.00;4.85;;;;;;;;;;5106025;28;20036;-67
2022/01/16 12:27:44;;;;;;;10.03;5.10;;;;;;;;;;5097248;28;20055;-67
2022/01/16 12:30:13;;;;;;;12.82;5.47;;;;;;;;;;5096436;28;20032;-67
2022/01/16 12:32:49;;;;;;;9.57;5.07;;;;;;;;;;5089967;28;20044;-67
2022/01/16 12:35:15;;;;;;;9.50;4.60;;;;;;;;;;5077715;28;20642;-67
2022/01/16 12:37:44;;;;;;;10.73;5.32;;;;;;;;;;5099425;28;20104;-66
2022/01/16 12:40:10;;;;;;;9.63;4.65;;;;;;;;;;5101462;28;20036;-67
2022/01/16 12:42:36;;;;;;;10.77;4.78;;;;;;;;;;5098943;28;20564;-67
2022/01/16 12:45:02;;;;;;;8.52;4.68;;;;;;;;;;5098888;28;20028;-67
2022/01/16 12:47:28;;;;;;;10.65;4.55;;;;;;;;;;5101692;28;20092;-67
2022/01/16 12:49:54;;;;;;;9.60;4.43;;;;;;;;;;5104112;28;20047;-66
2022/01/16 12:52:20;;;;;;;9.88;4.25;;;;;;;;;;5097221;28;20404;-67
2022/01/16 12:54:50;;;;;;;9.70;4.38;;;;;;;;;;5101144;28;20040;-66
2022/01/16 12:57:25;;;;;;;9.13;4.20;;;;;;;;;;5097767;28;20039;-67
2022/01/16 12:59:51;;;;;;;9.15;4.45;;;;;;;;;;5097773;28;20079;-67
2022/01/16 13:02:17;;;;;;;10.18;4.53;;;;;;;;;;5092128;28;20453;-67
2022/01/16 13:04:44;;;;;;;10.75;4.47;;;;;;;;;;5080813;28;20077;-67
2022/01/16 13:07:15;;;;;;;9.50;3.85;;;;;;;;;;5098597;28;20660;-67
2022/01/16 13:09:42;;;;;;;7.55;3.92;;;;;;;;;;5092476;28;20042;-67
2022/01/16 13:12:12;;;;;;;10.27;4.35;;;;;;;;;;5100804;28;20071;-67
2022/01/16 13:14:39;;;;;;;8.77;3.70;;;;;;;;;;5121869;27;20048;-67
2022/01/16 13:17:08;;;;;;;7.95;3.75;;;;;;;;;;5079757;28;20044;-66
2022/01/16 13:19:51;;;;;;;10.73;3.95;;;;;;;;;;5084601;28;20052;-67
2022/01/16 13:22:20;;;;;;;7.72;3.65;;;;;;;;;;5102761;28;20035;-67
2022/01/16 13:25:06;;;;;;;7.60;3.67;;;;;;;;;;5097045;28;20071;-67
2022/01/16 13:27:32;;;;;;;8.25;3.97;;;;;;;;;;5101909;28;20038;-66
2022/01/16 13:30:00;;;;;;;6.57;3.45;;;;;;;;;;5084841;28;20123;-66
2022/01/16 13:32:31;;;;;;;7.03;3.70;;;;;;;;;;5090865;28;20074;-67
2022/01/16 13:34:57;;;;;;;6.47;3.30;;;;;;;;;;5105375;28;20046;-67
2022/01/16 13:37:28;;;;;;;8.00;3.60;;;;;;;;;;5073425;28;20039;-67
2022/01/16 13:40:02;;;;;;;9.02;3.70;;;;;;;;;;5105496;28;20046;-66
2022/01/16 13:42:40;;;;;;;9.43;3.28;;;;;;;;;;5103788;28;20165;-67
2022/01/16 13:45:25;;;;;;;10.00;3.97;;;;;;;;;;5073088;28;20035;-67
2022/01/16 13:47:54;;;;;;;8.50;3.50;;;;;;;;;;5110133;27;20096;-66
2022/01/16 13:50:21;;;;;;;7.22;3.45;;;;;;;;;;5127502;27;20032;-67
2022/01/16 13:52:52;;;;;;;7.50;3.63;;;;;;;;;;5098659;28;20127;-66
2022/01/16 13:55:18;;;;;;;7.95;3.70;;;;;;;;;;5099059;28;20654;-67
2022/01/16 13:57:44;;;;;;;9.00;4.05;;;;;;;;;;5077813;28;20077;-66
2022/01/16 14:00:10;;;;;;;7.25;3.60;;;;;;;;;;5087198;28;20157;-66
2022/01/16 14:02:39;;;;;;;9.15;3.72;;;;;;;;;;5094716;28;20123;-66
2022/01/16 14:05:06;;;;;;;7.60;3.42;;;;;;;;;;5088721;28;20108;-67
2022/01/16 14:07:32;;;;;;;8.70;3.58;;;;;;;;;;5093047;28;20040;-66
2022/01/16 14:09:58;;;;;;;8.43;3.40;;;;;;;;;;5109943;27;20130;-65
2022/01/16 14:12:25;;;;;;;6.43;3.30;;;;;;;;;;5095705;28;20174;-64
2022/01/16 14:14:51;;;;;;;8.07;3.33;;;;;;;;;;5097378;28;20599;-65
2022/01/16 14:22:16;;;;;;;6.38;3.13;;;;;;;;;;5105988;27;20500;-65
2022/01/16 14:24:47;;;;;;;10.00;3.50;;;;;;;;;;5061943;28;20059;-65
2022/01/16 14:27:24;;;;;;;7.85;3.58;;;;;;;;;;5063564;28;20032;-66
2022/01/16 14:29:52;;;;;;;8.35;3.40;;;;;;;;;;5074329;28;20041;-66
2022/01/16 14:32:19;;;;;;;7.32;3.45;;;;;;;;;;5078943;28;20044;-66
2022/01/16 14:34:45;;;;;;;9.00;3.40;;;;;;;;;;5063056;28;20050;-65
2022/01/16 14:37:13;;;;;;;7.35;3.25;;;;;;;;;;5053564;28;20524;-66
2022/01/16 14:39:39;;;;;;;8.00;4.03;;;;;;;;;;5084604;28;20051;-66
2022/01/16 14:42:06;;;;;;;7.72;2.92;;;;;;;;;;5083429;28;20118;-66
2022/01/16 14:44:33;;;;;;;8.80;3.42;;;;;;;;;;5076399;28;20064;-67
2022/01/16 14:47:00;;;;;;;8.30;3.47;;;;;;;;;;5064256;28;20071;-67
2022/01/16 14:49:26;;;;;;;8.20;3.33;;;;;;;;;;5065850;28;20059;-67
2022/01/16 14:51:53;;;;;;;7.60;3.50;;;;;;;;;;5081774;28;20649;-66
2022/01/16 14:54:19;;;;;;;8.35;3.53;;;;;;;;;;5082881;28;20109;-65
2022/01/16 14:56:45;;;;;;;8.38;3.20;;;;;;;;;;5081080;28;20044;-66
2022/01/16 14:59:12;;;;;;;8.80;3.58;;;;;;;;;;5116542;27;20127;-64
2022/01/16 15:01:38;;;;;;;10.65;3.78;;;;;;;;;;5081863;28;20047;-63
2022/01/16 15:04:04;;;;;;;7.38;2.90;;;;;;;;;;5065383;28;20047;-64
2022/01/16 15:06:30;;;;;;;7.82;3.50;;;;;;;;;;5082201;28;20043;-64
2022/01/16 15:08:59;;;;;;;11.43;3.50;;;;;;;;;;5081840;28;20114;-64
2022/01/16 15:11:25;;;;;;;9.00;3.25;;;;;;;;;;5066971;28;20044;-64